Time;durP1;ratioP1;P1;durP2;ratioP2;P2;SDS_P1;SDS_P2;PMS_P1;PMS_P2;Temp;Humidity;BMP_temperature;BMP_pressure;BME280_temperature;BME280_humidity;BME280_pressure;Samples;Min_cycle;Max_cycle;Signal;HPM_P1;HPM_P2
2021/08/09 00:00:05;;;;;;;;;;;;;;;16.36;69.72;100264.81;10360017;28;19992;-56
2021/08/09 00:05:06;;;;;;;;;;;;;;;16.35;69.95;100260.44;10361058;28;19933;-56
2021/08/09 00:10:08;;;;;;;;;;;;;;;16.37;69.63;100268.31;10372766;28;20446;-56
2021/08/09 00:15:10;;;;;;;;;;;;;;;16.23;70.04;100269.78;10349066;28;19964;-56
2021/08/09 00:20:12;;;;;;;;;;;;;;;16.15;70.33;100270.53;10367267;28;20377;-56
2021/08/09 00:25:14;;;;;;;;;;;;;;;16.12;70.64;100270.03;10368027;28;19972;-56
2021/08/09 00:30:15;;;;;;;;;;;;;;;16.14;70.34;100265.34;10354717;28;19980;-56
2021/08/09 00:35:17;;;;;;;;;;;;;;;16.17;70.38;100265.88;10368842;28;19933;-56
2021/08/09 00:40:18;;;;;;;;;;;;;;;16.29;70.09;100260.22;10364582;28;19965;-56
2021/08/09 00:45:20;;;;;;;;;;;;;;;16.34;69.84;100263.28;10363987;28;19925;-56
2021/08/09 00:50:22;;;;;;;;;;;;;;;16.16;70.96;100261.50;10369739;28;19956;-56
2021/08/09 00:55:24;;;;;;;;;;;;;;;16.18;70.99;100269.41;10364283;28;19957;-56
2021/08/09 01:00:25;;;;;;;;;;;;;;;16.24;70.58;100274.97;10373330;28;19956;-56
2021/08/09 01:05:27;;;;;;;;;;;;;;;16.21;70.58;100274.44;10368079;28;19934;-54
2021/08/09 01:10:31;;;;;;;;;;;;;;;16.07;71.13;100274.03;10368270;28;20441;-55
2021/08/09 01:15:36;;;;;;;;;;;;;;;15.98;71.51;100274.16;10364761;28;20375;-55
2021/08/09 01:20:37;;;;;;;;;;;;;;;15.96;71.51;100273.44;10357388;28;19965;-55
2021/08/09 01:25:44;;;;;;;;;;;;;;;15.92;71.79;100272.94;10361847;28;19964;-55
2021/08/09 01:30:47;;;;;;;;;;;;;;;15.89;71.68;100276.78;10357357;28;19933;-55
2021/08/09 01:35:50;;;;;;;;;;;;;;;15.79;72.16;100286.75;10372462;28;19983;-55
2021/08/09 01:40:56;;;;;;;;;;;;;;;15.76;72.14;100283.53;10367280;28;19964;-56
2021/08/09 01:45:59;;;;;;;;;;;;;;;15.67;72.71;100287.97;10360591;28;19968;-55
2021/08/09 01:51:01;;;;;;;;;;;;;;;15.62;72.89;100295.66;10364720;28;19925;-55
2021/08/09 01:56:04;;;;;;;;;;;;;;;15.58;73.10;100302.34;10366766;28;19964;-60
2021/08/09 02:01:05;;;;;;;;;;;;;;;15.65;73.11;100311.47;10366358;28;20420;-57
2021/08/09 02:06:07;;;;;;;;;;;;;;;15.74;72.69;100303.31;10366799;28;19929;-56
2021/08/09 02:11:12;;;;;;;;;;;;;;;15.68;72.55;100306.59;10363816;28;19969;-55
2021/08/09 02:16:17;;;;;;;;;;;;;;;15.69;72.84;100304.78;10361182;28;20106;-55
2021/08/09 02:21:21;;;;;;;;;;;;;;;15.62;73.09;100306.41;10372677;28;19932;-55
2021/08/09 02:26:27;;;;;;;;;;;;;;;15.64;73.07;100316.00;10364110;28;20011;-56
2021/08/09 02:31:30;;;;;;;;;;;;;;;15.61;73.46;100315.44;10377548;28;20279;-56
2021/08/09 02:36:32;;;;;;;;;;;;;;;15.64;73.12;100309.75;10363840;28;20015;-60
2021/08/09 02:41:33;;;;;;;;;;;;;;;15.61;73.05;100316.28;10371290;28;20354;-56
2021/08/09 02:46:35;;;;;;;;;;;;;;;15.54;73.52;100318.75;10371301;28;20189;-56
2021/08/09 02:51:36;;;;;;;;;;;;;;;15.51;73.69;100316.38;10366202;28;19968;-56
2021/08/09 02:56:38;;;;;;;;;;;;;;;15.47;73.81;100319.53;10359106;28;19957;-56
2021/08/09 03:01:40;;;;;;;;;;;;;;;15.40;74.30;100313.91;10346935;28;19957;-55
2021/08/09 03:06:42;;;;;;;;;;;;;;;15.35;74.43;100321.59;10366458;28;19944;-58
2021/08/09 03:11:43;;;;;;;;;;;;;;;15.34;74.38;100319.88;10365383;28;20449;-55
2021/08/09 03:16:45;;;;;;;;;;;;;;;15.29;74.67;100322.19;10363718;28;19964;-56
2021/08/09 03:21:50;;;;;;;;;;;;;;;15.27;74.84;100308.13;10364616;28;19960;-55
2021/08/09 03:26:52;;;;;;;;;;;;;;;15.33;74.67;100312.84;10353913;28;20440;-55
2021/08/09 03:31:53;;;;;;;;;;;;;;;15.32;74.42;100305.81;10354777;28;19925;-56
2021/08/09 03:36:54;;;;;;;;;;;;;;;15.29;74.25;100309.63;10366156;28;20564;-56
2021/08/09 03:41:56;;;;;;;;;;;;;;;15.32;73.83;100322.72;10364129;28;19972;-56
2021/08/09 03:46:57;;;;;;;;;;;;;;;15.23;73.64;100322.81;10362269;28;20051;-56
2021/08/09 03:51:58;;;;;;;;;;;;;;;15.22;73.90;100318.44;10364628;28;20007;-56
2021/08/09 03:57:00;;;;;;;;;;;;;;;15.23;73.69;100328.19;10364364;28;19926;-56
2021/08/09 04:02:01;;;;;;;;;;;;;;;15.20;74.06;100324.78;10366095;28;20003;-55
2021/08/09 04:07:03;;;;;;;;;;;;;;;15.23;73.92;100330.84;10363802;28;19933;-57
2021/08/09 04:12:04;;;;;;;;;;;;;;;15.19;74.14;100328.47;10363458;28;20329;-56
2021/08/09 04:17:05;;;;;;;;;;;;;;;15.16;74.18;100319.88;10362806;28;20573;-56
2021/08/09 04:22:07;;;;;;;;;;;;;;;15.12;74.29;100316.66;10348788;28;20354;-56
2021/08/09 04:27:08;;;;;;;;;;;;;;;15.18;74.15;100304.50;10343904;28;20016;-56
2021/08/09 04:32:11;;;;;;;;;;;;;;;15.18;73.71;100299.97;10368847;28;20012;-56
2021/08/09 04:37:12;;;;;;;;;;;;;;;15.13;74.07;100307.66;10369012;28;19991;-56
2021/08/09 04:42:14;;;;;;;;;;;;;;;15.11;73.89;100309.59;10365664;28;20020;-56
2021/08/09 04:47:15;;;;;;;;;;;;;;;15.11;73.78;100304.25;10347466;28;19932;-56
2021/08/09 04:52:17;;;;;;;;;;;;;;;15.23;73.52;100312.91;10359495;28;19937;-56
2021/08/09 04:57:18;;;;;;;;;;;;;;;15.19;73.68;100312.38;10350408;28;19935;-57
2021/08/09 05:02:20;;;;;;;;;;;;;;;15.17;74.26;100322.41;10357864;28;19933;-56
2021/08/09 05:07:21;;;;;;;;;;;;;;;15.13;74.05;100322.88;10356224;28;19940;-55
2021/08/09 05:12:22;;;;;;;;;;;;;;;15.22;74.34;100338.03;10354719;28;19957;-56
2021/08/09 05:17:24;;;;;;;;;;;;;;;15.29;73.76;100339.13;10359579;28;20039;-56
2021/08/09 05:22:25;;;;;;;;;;;;;;;15.30;73.91;100339.97;10364814;28;20007;-56
2021/08/09 05:27:27;;;;;;;;;;;;;;;15.34;73.64;100338.66;10365490;28;19994;-56
2021/08/09 05:32:29;;;;;;;;;;;;;;;15.30;73.91;100338.13;10372810;28;20366;-56
2021/08/09 05:37:32;;;;;;;;;;;;;;;15.40;73.86;100338.03;10371121;28;19980;-56
2021/08/09 05:42:33;;;;;;;;;;;;;;;15.61;72.96;100339.59;10360092;28;19933;-56
2021/08/09 05:47:34;;;;;;;;;;;;;;;15.86;72.56;100338.81;10363812;28;19964;-56
2021/08/09 05:52:36;;;;;;;;;;;;;;;16.11;71.90;100355.13;10374644;28;19929;-56
2021/08/09 05:57:37;;;;;;;;;;;;;;;16.37;71.31;100354.28;10371381;28;19972;-56
2021/08/09 06:02:42;;;;;;;;;;;;;;;16.54;70.76;100349.84;10363275;28;20016;-54
2021/08/09 06:07:43;;;;;;;;;;;;;;;16.51;70.42;100339.41;10362377;28;20102;-57
2021/08/09 06:12:44;;;;;;;;;;;;;;;16.50;70.99;100343.09;10353711;28;19987;-56
2021/08/09 06:17:46;;;;;;;;;;;;;;;16.67;71.24;100344.03;10352981;28;20009;-55
2021/08/09 06:22:48;;;;;;;;;;;;;;;16.79;69.81;100354.31;10343759;28;19969;-56
2021/08/09 06:27:50;;;;;;;;;;;;;;;16.85;69.68;100346.63;10342826;28;20027;-56
2021/08/09 06:32:52;;;;;;;;;;;;;;;16.98;68.59;100351.56;10326765;28;20010;-55
2021/08/09 06:37:53;;;;;;;;;;;;;;;17.03;68.64;100344.69;10338217;28;20306;-60
2021/08/09 06:42:55;;;;;;;;;;;;;;;17.10;68.36;100344.91;10339910;28;21122;-56
2021/08/09 06:47:56;;;;;;;;;;;;;;;17.25;68.31;100353.16;10342687;28;20015;-56
2021/08/09 06:52:58;;;;;;;;;;;;;;;17.45;66.98;100361.78;10353545;28;19961;-56
2021/08/09 06:57:59;;;;;;;;;;;;;;;17.41;67.14;100363.09;10350515;28;19929;-55
2021/08/09 07:03:04;;;;;;;;;;;;;;;17.38;67.26;100376.91;10348668;28;20035;-55
2021/08/09 07:08:05;;;;;;;;;;;;;;;17.55;67.06;100370.53;10348444;28;20446;-55
2021/08/09 07:13:07;;;;;;;;;;;;;;;17.95;66.19;100366.19;10350300;28;20514;-55
2021/08/09 07:18:08;;;;;;;;;;;;;;;18.26;65.95;100362.81;10351007;28;20047;-57
2021/08/09 07:23:10;;;;;;;;;;;;;;;18.37;64.37;100354.38;10342818;28;19999;-56
2021/08/09 07:28:11;;;;;;;;;;;;;;;18.38;64.78;100360.59;10347934;28;20059;-57
2021/08/09 07:33:13;;;;;;;;;;;;;;;18.45;64.67;100347.25;10342053;28;20318;-55
2021/08/09 07:38:14;;;;;;;;;;;;;;;18.38;65.20;100347.97;10348883;28;20474;-60
2021/08/09 07:43:15;;;;;;;;;;;;;;;18.47;65.17;100339.88;10345399;28;20052;-55
2021/08/09 07:48:17;;;;;;;;;;;;;;;18.55;65.40;100335.28;10344015;28;20083;-57
2021/08/09 07:53:18;;;;;;;;;;;;;;;18.81;64.51;100334.19;10344075;28;19937;-59
2021/08/09 07:58:19;;;;;;;;;;;;;;;18.86;64.21;100330.97;10342798;28;20688;-56
2021/08/09 08:03:21;;;;;;;;;;;;;;;19.02;63.98;100328.22;10324280;28;20058;-56
2021/08/09 08:08:22;;;;;;;;;;;;;;;19.40;62.60;100327.47;10345783;28;19933;-56
2021/08/09 08:13:23;;;;;;;;;;;;;;;19.58;60.77;100329.88;10327442;28;19932;-55
2021/08/09 08:18:25;;;;;;;;;;;;;;;19.70;59.64;100338.38;10345398;28;20013;-56
2021/08/09 08:23:26;;;;;;;;;;;;;;;20.02;58.81;100331.88;10343762;28;20290;-55
2021/08/09 08:28:27;;;;;;;;;;;;;;;20.24;58.09;100329.31;10341192;28;19933;-55
2021/08/09 08:33:29;;;;;;;;;;;;;;;20.51;58.42;100326.97;10342610;28;20019;-55
2021/08/09 08:38:30;;;;;;;;;;;;;;;20.63;56.51;100339.00;10346403;28;20665;-55
2021/08/09 08:43:32;;;;;;;;;;;;;;;20.64;56.64;100329.84;10336875;28;20039;-55
2021/08/09 08:48:34;;;;;;;;;;;;;;;20.79;56.38;100344.25;10345830;28;19940;-55
2021/08/09 08:53:53;;;;;;;;;;;;;;;21.49;55.36;100344.59;10341512;28;20462;-56
2021/08/09 08:58:54;;;;;;;;;;;;;;;21.51;54.78;100348.00;10339569;28;19929;-56
2021/08/09 09:03:55;;;;;;;;;;;;;;;21.89;53.93;100345.00;10331970;28;20063;-56
2021/08/09 09:08:57;;;;;;;;;;;;;;;21.83;52.07;100344.97;10351830;28;20194;-56
2021/08/09 09:13:59;;;;;;;;;;;;;;;21.87;52.07;100346.25;10351137;28;19960;-56
2021/08/09 09:19:01;;;;;;;;;;;;;;;22.14;52.66;100352.69;10348430;28;19925;-57
2021/08/09 09:24:16;;;;;;;;;;;;;;;22.51;50.99;100352.56;10329553;28;20031;-54
2021/08/09 09:29:17;;;;;;;;;;;;;;;22.90;50.95;100361.97;10357090;28;20007;-57
2021/08/09 09:34:20;;;;;;;;;;;;;;;23.22;49.66;100357.72;10355968;28;19933;-56
2021/08/09 09:39:28;;;;;;;;;;;;;;;23.36;48.17;100358.59;10348376;28;20050;-56
2021/08/09 09:44:31;;;;;;;;;;;;;;;23.60;47.69;100359.03;10353917;28;19925;-56
2021/08/09 09:49:33;;;;;;;;;;;;;;;23.68;47.95;100361.59;10348571;28;19980;-59
2021/08/09 09:54:34;;;;;;;;;;;;;;;23.60;48.76;100345.47;10346899;28;19999;-55
2021/08/09 09:59:36;;;;;;;;;;;;;;;23.72;47.60;100348.41;10344760;28;20019;-61
2021/08/09 10:04:37;;;;;;;;;;;;;;;23.90;47.70;100351.41;10350795;28;20072;-57
2021/08/09 10:09:38;;;;;;;;;;;;;;;23.98;47.23;100343.00;10346138;28;21160;-56
2021/08/09 10:14:40;;;;;;;;;;;;;;;24.31;45.78;100333.97;10342558;28;19926;-55
2021/08/09 10:19:44;;;;;;;;;;;;;;;24.75;45.67;100333.47;10348692;28;19925;-56
2021/08/09 10:24:46;;;;;;;;;;;;;;;24.88;44.75;100330.72;10352623;28;20032;-55
2021/08/09 10:29:59;;;;;;;;;;;;;;;24.34;44.27;100328.13;10332270;28;20441;-56
2021/08/09 10:35:01;;;;;;;;;;;;;;;24.17;44.62;100329.63;10341279;28;19994;-56
2021/08/09 10:40:04;;;;;;;;;;;;;;;24.20;45.61;100331.94;10332551;28;20011;-56
2021/08/09 10:45:06;;;;;;;;;;;;;;;24.23;45.40;100328.78;10345925;28;20495;-56
2021/08/09 10:50:07;;;;;;;;;;;;;;;25.19;42.25;100327.19;10347455;28;20368;-56
2021/08/09 10:55:27;;;;;;;;;;;;;;;25.82;42.26;100320.09;10349096;28;20007;-56
2021/08/09 11:00:38;;;;;;;;;;;;;;;25.97;40.78;100317.00;10342893;28;21125;-55
2021/08/09 11:05:40;;;;;;;;;;;;;;;25.54;42.21;100323.25;10342708;28;19926;-56
2021/08/09 11:10:56;;;;;;;;;;;;;;;24.61;43.96;100317.19;10346617;28;19925;-56
2021/08/09 11:15:57;;;;;;;;;;;;;;;24.32;44.47;100310.31;10348872;28;20380;-56
2021/08/09 11:21:02;;;;;;;;;;;;;;;24.93;43.45;100311.81;10350181;28;19941;-56
2021/08/09 11:26:04;;;;;;;;;;;;;;;25.31;42.16;100305.59;10344691;28;20011;-55
2021/08/09 11:31:06;;;;;;;;;;;;;;;25.53;41.12;100305.22;10354645;28;20570;-56
2021/08/09 11:36:14;;;;;;;;;;;;;;;25.94;40.76;100307.41;10350519;28;19926;-57
2021/08/09 11:41:17;;;;;;;;;;;;;;;26.13;40.07;100295.72;10332203;28;19940;-55
2021/08/09 11:46:19;;;;;;;;;;;;;;;25.81;41.00;100296.59;10343856;28;19972;-57
2021/08/09 11:51:20;;;;;;;;;;;;;;;25.63;41.07;100300.09;10346739;28;19940;-57
2021/08/09 11:56:36;;;;;;;;;;;;;;;25.95;40.43;100289.13;10334914;28;19925;-57
2021/08/09 12:01:38;;;;;;;;;;;;;;;25.97;40.69;100295.19;10343369;28;20363;-58
2021/08/09 12:06:46;;;;;;;;;;;;;;;25.87;40.91;100305.78;10341343;28;19931;-57
2021/08/09 12:12:00;;;;;;;;;;;;;;;25.43;36.91;100300.25;10341410;28;19991;-57
2021/08/09 12:17:17;;;;;;;;;;;;;;;26.34;35.51;100300.72;10325987;28;20064;-56
2021/08/09 12:22:23;;;;;;;;;;;;;;;26.36;35.08;100306.81;10339751;28;19929;-57
2021/08/09 12:27:25;;;;;;;;;;;;;;;25.48;37.14;100308.59;10346204;28;21960;-55
2021/08/09 12:32:28;;;;;;;;;;;;;;;24.72;38.21;100314.84;10344655;28;20016;-55
2021/08/09 12:37:29;;;;;;;;;;;;;;;24.86;37.72;100305.56;10343214;28;19969;-56
2021/08/09 12:42:30;;;;;;;;;;;;;;;24.72;38.22;100295.81;10337304;28;20048;-56
2021/08/09 12:47:32;;;;;;;;;;;;;;;24.38;39.59;100304.06;10340180;28;20037;-63
2021/08/09 12:52:33;;;;;;;;;;;;;;;24.41;39.19;100305.50;10345565;28;20075;-55
2021/08/09 12:57:36;;;;;;;;;;;;;;;24.15;39.75;100310.78;10348050;28;19940;-56
2021/08/09 13:02:39;;;;;;;;;;;;;;;24.08;40.26;100309.13;10344053;28;20055;-56
2021/08/09 13:07:40;;;;;;;;;;;;;;;24.05;39.92;100309.53;10348995;28;19933;-56
2021/08/09 13:12:42;;;;;;;;;;;;;;;23.99;40.20;100301.19;10345345;28;20511;-55
2021/08/09 13:17:43;;;;;;;;;;;;;;;24.13;40.26;100290.31;10348119;28;19933;-56
2021/08/09 13:22:44;;;;;;;;;;;;;;;24.40;39.88;100293.78;10346126;28;19926;-56
2021/08/09 13:27:46;;;;;;;;;;;;;;;24.59;38.43;100305.69;10343672;28;19994;-56
2021/08/09 13:32:47;;;;;;;;;;;;;;;25.01;38.32;100303.41;10328633;28;19941;-59
2021/08/09 13:37:49;;;;;;;;;;;;;;;24.87;37.33;100301.81;10350073;28;20402;-58
2021/08/09 13:42:56;;;;;;;;;;;;;;;25.08;38.77;100284.31;10350826;28;20036;-55
2021/08/09 13:47:58;;;;;;;;;;;;;;;24.68;38.10;100271.75;10353323;28;20071;-56
2021/08/09 13:52:59;;;;;;;;;;;;;;;25.15;38.46;100289.72;10337938;28;19933;-56
2021/08/09 13:58:00;;;;;;;;;;;;;;;25.09;37.47;100298.78;10353185;28;20064;-56
2021/08/09 14:03:03;;;;;;;;;;;;;;;24.92;37.46;100299.28;10355495;28;19961;-55
2021/08/09 14:08:04;;;;;;;;;;;;;;;24.72;37.62;100293.09;10351070;28;19984;-56
2021/08/09 14:13:06;;;;;;;;;;;;;;;24.48;37.42;100292.72;10353354;28;19930;-55
2021/08/09 14:18:07;;;;;;;;;;;;;;;24.63;37.16;100287.03;10355715;28;20121;-55
2021/08/09 14:23:09;;;;;;;;;;;;;;;24.64;36.67;100265.06;10352578;28;20165;-55
2021/08/09 14:28:10;;;;;;;;;;;;;;;24.87;37.13;100288.19;10349719;28;19934;-55
2021/08/09 14:33:11;;;;;;;;;;;;;;;24.90;35.59;100290.47;10337844;28;20016;-56
2021/08/09 14:38:12;;;;;;;;;;;;;;;24.90;34.74;100281.50;10352291;28;20016;-55
2021/08/09 14:43:14;;;;;;;;;;;;;;;24.85;33.72;100282.16;10353294;28;19933;-55
2021/08/09 14:48:15;;;;;;;;;;;;;;;24.74;33.61;100282.81;10352050;28;20016;-55
2021/08/09 14:53:17;;;;;;;;;;;;;;;24.85;34.07;100287.59;10352940;28;19932;-55
2021/08/09 14:58:18;;;;;;;;;;;;;;;24.76;34.53;100289.72;10347873;28;20446;-56
2021/08/09 15:03:19;;;;;;;;;;;;;;;24.65;33.56;100285.78;10353933;28;20012;-56
2021/08/09 15:08:20;;;;;;;;;;;;;;;24.34;34.44;100303.63;10349837;28;19995;-55
2021/08/09 15:13:22;;;;;;;;;;;;;;;24.25;32.88;100294.03;10352145;28;19980;-55
2021/08/09 15:18:23;;;;;;;;;;;;;;;24.35;33.70;100282.72;10350431;28;19973;-55
2021/08/09 15:23:24;;;;;;;;;;;;;;;24.45;33.53;100287.72;10333153;28;19925;-56
2021/08/09 15:28:26;;;;;;;;;;;;;;;24.38;33.60;100292.31;10352295;28;19941;-55
2021/08/09 15:33:29;;;;;;;;;;;;;;;24.44;33.75;100291.47;10352632;28;26488;-55
2021/08/09 15:38:30;;;;;;;;;;;;;;;24.29;34.64;100300.72;10346728;28;19960;-55
2021/08/09 15:43:32;;;;;;;;;;;;;;;23.89;35.59;100299.97;10348537;28;19976;-56
2021/08/09 15:48:33;;;;;;;;;;;;;;;23.80;35.91;100291.16;10346397;28;20010;-56
2021/08/09 15:53:35;;;;;;;;;;;;;;;23.57;36.34;100297.84;10348342;28;19977;-56
2021/08/09 15:58:37;;;;;;;;;;;;;;;23.64;36.82;100303.25;10329076;28;20428;-57
2021/08/09 16:03:40;;;;;;;;;;;;;;;23.65;37.15;100300.31;10344022;28;19925;-57
2021/08/09 16:08:41;;;;;;;;;;;;;;;23.64;37.88;100298.69;10328538;28;20417;-57
2021/08/09 16:13:43;;;;;;;;;;;;;;;23.80;38.18;100296.59;10349341;28;20024;-56
2021/08/09 16:18:44;;;;;;;;;;;;;;;23.71;38.64;100306.00;10342940;28;19933;-56
2021/08/09 16:23:51;;;;;;;;;;;;;;;23.48;38.96;100294.47;10328562;28;19960;-57
2021/08/09 16:28:53;;;;;;;;;;;;;;;23.25;39.92;100300.28;10341944;28;19940;-56
2021/08/09 16:33:55;;;;;;;;;;;;;;;23.01;41.23;100298.09;10341056;28;20062;-58
2021/08/09 16:38:57;;;;;;;;;;;;;;;22.84;41.88;100293.03;10321330;28;19937;-54
2021/08/09 16:44:01;;;;;;;;;;;;;;;22.73;42.04;100283.63;10342288;28;19934;-56
2021/08/09 16:49:03;;;;;;;;;;;;;;;22.78;40.91;100277.56;10346131;28;20618;-57
2021/08/09 16:54:05;;;;;;;;;;;;;;;22.67;40.78;100275.44;10339847;28;19936;-56
2021/08/09 16:59:06;;;;;;;;;;;;;;;22.72;41.21;100270.25;10343698;28;20019;-55
2021/08/09 17:04:07;;;;;;;;;;;;;;;22.62;41.08;100275.22;10328298;28;19996;-57
2021/08/09 17:09:12;;;;;;;;;;;;;;;22.57;40.51;100265.81;10343872;28;20016;-57
2021/08/09 17:14:13;;;;;;;;;;;;;;;22.54;40.96;100260.78;10342183;28;19929;-55
2021/08/09 17:19:15;;;;;;;;;;;;;;;22.50;40.92;100264.94;10341126;28;20892;-58
2021/08/09 17:24:16;;;;;;;;;;;;;;;22.52;41.59;100278.28;10351707;28;19961;-55
2021/08/09 17:29:28;;;;;;;;;;;;;;;22.57;41.30;100271.22;10353132;28;20067;-56
2021/08/09 17:34:29;;;;;;;;;;;;;;;22.55;41.78;100267.06;10347774;28;20552;-56
2021/08/09 17:39:31;;;;;;;;;;;;;;;22.57;41.91;100278.53;10349152;28;19961;-58
2021/08/09 17:44:32;;;;;;;;;;;;;;;22.54;42.02;100277.06;10348650;28;19937;-55
2021/08/09 17:49:34;;;;;;;;;;;;;;;22.49;42.40;100276.84;10330206;28;20546;-58
2021/08/09 17:54:35;;;;;;;;;;;;;;;22.45;42.90;100278.28;10353556;28;21810;-56
2021/08/09 17:59:36;;;;;;;;;;;;;;;22.44;43.63;100283.91;10352113;28;19976;-55
2021/08/09 18:04:38;;;;;;;;;;;;;;;22.37;43.00;100286.59;10353039;28;20012;-56
2021/08/09 18:09:39;;;;;;;;;;;;;;;22.25;43.50;100289.81;10353281;28;19925;-57
2021/08/09 18:14:40;;;;;;;;;;;;;;;22.18;44.31;100299.78;10345512;28;20020;-56
2021/08/09 18:19:42;;;;;;;;;;;;;;;22.17;45.00;100298.13;10351525;28;19932;-56
2021/08/09 18:24:43;;;;;;;;;;;;;;;22.17;45.61;100302.69;10354563;28;19957;-57
2021/08/09 18:29:44;;;;;;;;;;;;;;;22.12;45.57;100300.56;10349302;28;20021;-57
2021/08/09 18:34:46;;;;;;;;;;;;;;;22.07;46.61;100297.63;10350160;28;19932;-56
2021/08/09 18:39:47;;;;;;;;;;;;;;;21.98;46.68;100301.50;10338250;28;20020;-56
2021/08/09 18:44:49;;;;;;;;;;;;;;;21.85;44.93;100305.78;10340066;28;19991;-56
2021/08/09 18:49:50;;;;;;;;;;;;;;;21.77;46.38;100305.94;10351803;28;19933;-60
2021/08/09 18:54:51;;;;;;;;;;;;;;;21.67;45.78;100308.16;10351820;28;19983;-56
2021/08/09 18:59:53;;;;;;;;;;;;;;;21.57;44.95;100318.47;10351074;28;20020;-56
2021/08/09 19:04:54;;;;;;;;;;;;;;;21.37;46.00;100319.09;10346017;28;19988;-56
2021/08/09 19:09:55;;;;;;;;;;;;;;;21.35;45.19;100319.28;10345690;28;20042;-56
2021/08/09 19:14:57;;;;;;;;;;;;;;;21.28;45.30;100322.94;10347527;28;20039;-56
2021/08/09 19:19:58;;;;;;;;;;;;;;;21.22;46.68;100321.00;10353081;28;19940;-55
2021/08/09 19:25:00;;;;;;;;;;;;;;;21.16;45.97;100328.84;10346008;28;20000;-56
2021/08/09 19:30:01;;;;;;;;;;;;;;;21.11;46.02;100331.31;10350019;28;19941;-56
2021/08/09 19:35:06;;;;;;;;;;;;;;;21.05;46.33;100332.06;10353211;28;20545;-55
2021/08/09 19:40:08;;;;;;;;;;;;;;;21.00;46.89;100329.06;10351222;28;20015;-55
2021/08/09 19:45:09;;;;;;;;;;;;;;;20.91;47.29;100330.22;10352185;28;20386;-55
2021/08/09 19:50:10;;;;;;;;;;;;;;;20.83;47.87;100336.59;10350964;28;19972;-60
2021/08/09 19:55:12;;;;;;;;;;;;;;;20.78;46.71;100336.31;10345275;28;20036;-55
2021/08/09 20:00:13;;;;;;;;;;;;;;;20.77;45.90;100335.47;10348253;28;19938;-55
2021/08/09 20:05:15;;;;;;;;;;;;;;;20.72;46.11;100335.19;10344501;28;19960;-55
2021/08/09 20:10:16;;;;;;;;;;;;;;;20.69;46.98;100343.69;10327973;28;19988;-55
2021/08/09 20:15:18;;;;;;;;;;;;;;;20.64;44.89;100341.53;10324852;28;19926;-55
2021/08/09 20:20:19;;;;;;;;;;;;;;;20.64;44.51;100336.13;10343914;28;20008;-55
2021/08/09 20:25:20;;;;;;;;;;;;;;;20.66;45.30;100349.47;10342556;28;19991;-56
2021/08/09 20:30:22;;;;;;;;;;;;;;;20.69;45.87;100350.94;10345377;28;19995;-56
2021/08/09 20:35:23;;;;;;;;;;;;;;;20.65;43.88;100348.63;10340263;28;20048;-56
2021/08/09 20:40:24;;;;;;;;;;;;;;;20.60;44.54;100347.50;10339073;28;20016;-57
2021/08/09 20:45:27;;;;;;;;;;;;;;;20.57;45.03;100347.88;10358274;28;19961;-57
2021/08/09 20:50:28;;;;;;;;;;;;;;;20.54;45.87;100342.84;10355835;28;19926;-56
2021/08/09 20:55:30;;;;;;;;;;;;;;;20.55;46.30;100341.78;10353336;28;20027;-56
2021/08/09 21:00:31;;;;;;;;;;;;;;;20.56;45.22;100346.19;10359900;28;19964;-56
2021/08/09 21:05:33;;;;;;;;;;;;;;;20.54;46.56;100342.84;10361794;28;19987;-56
2021/08/09 21:10:34;;;;;;;;;;;;;;;20.60;46.91;100339.38;10358977;28;20406;-61
2021/08/09 21:15:35;;;;;;;;;;;;;;;20.64;47.08;100333.41;10362534;28;20006;-56
2021/08/09 21:20:37;;;;;;;;;;;;;;;20.62;46.92;100338.16;10358555;28;20563;-57
2021/08/09 21:25:38;;;;;;;;;;;;;;;20.66;46.70;100344.06;10363940;28;20346;-56
2021/08/09 21:30:39;;;;;;;;;;;;;;;20.67;47.11;100340.31;10366765;28;20001;-56
2021/08/09 21:35:41;;;;;;;;;;;;;;;20.72;48.02;100345.19;10356347;28;19925;-56
2021/08/09 21:40:42;;;;;;;;;;;;;;;20.71;47.80;100341.63;10351150;28;19996;-56
2021/08/09 21:45:44;;;;;;;;;;;;;;;20.67;47.32;100345.72;10356644;28;20052;-56
2021/08/09 21:50:45;;;;;;;;;;;;;;;20.58;47.39;100338.72;10350896;28;20338;-56
2021/08/09 21:55:46;;;;;;;;;;;;;;;20.54;47.70;100340.97;10364682;28;20016;-56
2021/08/09 22:00:48;;;;;;;;;;;;;;;20.51;47.83;100344.03;10362421;28;19929;-56
2021/08/09 22:05:50;;;;;;;;;;;;;;;20.45;48.36;100342.09;10356396;28;20337;-56
2021/08/09 22:10:51;;;;;;;;;;;;;;;20.42;48.70;100351.41;10361927;28;20028;-58
2021/08/09 22:15:53;;;;;;;;;;;;;;;20.48;48.73;100347.94;10355368;28;20536;-56
2021/08/09 22:20:54;;;;;;;;;;;;;;;20.48;48.77;100361.47;10359080;28;20053;-56
2021/08/09 22:25:55;;;;;;;;;;;;;;;20.52;48.99;100352.97;10358892;28;20020;-63
2021/08/09 22:30:57;;;;;;;;;;;;;;;20.55;49.23;100352.59;10359594;28;19929;-56
2021/08/09 22:35:58;;;;;;;;;;;;;;;20.49;48.72;100357.75;10360049;28;19925;-56
2021/08/09 22:40:59;;;;;;;;;;;;;;;20.45;48.93;100353.72;10363366;28;19972;-56
2021/08/09 22:46:01;;;;;;;;;;;;;;;20.47;49.36;100356.25;10368412;28;20016;-56
2021/08/09 22:51:02;;;;;;;;;;;;;;;20.41;49.48;100349.72;10365781;28;20455;-55
2021/08/09 22:56:04;;;;;;;;;;;;;;;20.37;49.45;100350.28;10351116;28;19980;-55
2021/08/09 23:01:05;;;;;;;;;;;;;;;20.34;50.23;100351.47;10357165;28;20423;-56
2021/08/09 23:06:07;;;;;;;;;;;;;;;20.39;50.52;100349.06;10357747;28;19933;-55
2021/08/09 23:11:08;;;;;;;;;;;;;;;20.37;50.19;100337.63;10364439;28;19925;-55
2021/08/09 23:16:09;;;;;;;;;;;;;;;20.14;50.41;100314.19;10363535;28;19972;-55
2021/08/09 23:21:11;;;;;;;;;;;;;;;20.33;50.84;100349.81;10359686;28;20012;-55
2021/08/09 23:26:12;;;;;;;;;;;;;;;20.17;51.03;100322.97;10356688;28;20445;-55
2021/08/09 23:31:13;;;;;;;;;;;;;;;20.35;51.08;100355.88;10357193;28;20359;-55
2021/08/09 23:36:15;;;;;;;;;;;;;;;20.23;51.01;100354.66;10356049;28;20442;-59
2021/08/09 23:41:17;;;;;;;;;;;;;;;20.12;51.26;100348.66;10350233;28;20024;-55
2021/08/09 23:46:19;;;;;;;;;;;;;;;20.09;51.29;100348.19;10359280;28;19968;-55
2021/08/09 23:51:20;;;;;;;;;;;;;;;20.10;51.77;100349.84;10356419;28;20075;-55
2021/08/09 23:56:21;;;;;;;;;;;;;;;20.18;51.46;100355.19;10356576;28;19964;-55
